Massey, Iowa
Current Conditions -  °F | °C
As of 9:53 PM on Sunday 25 Jan 2015 (Local Time) from KDBQ Reporting Station
Clear Clear  
Wind Chill: 17°   Ceiling: Unl
Heat Index: 17°   Visibility: 10mi
Dew Point: 10°   Wind: 3mph
Humidity: 74%   Direction: 50°NE
Pressure: 30.04"   Gusts: NA
Location:  42.549°N, 90.6988°W
Report Text: KDBQ 260353Z AUTO 05003KT 10SM CLR M08/M12 A3004 RMK AO2 SLP188 T10831122 $
Loading
Personal Weather Stations






























Interactive Weather Map New forecast layout! Learn more

10-Day Weather Forecast

Advertisements
Track Severe Weather on mobile